Time;durP1;ratioP1;P1;durP2;ratioP2;P2;SDS_P1;SDS_P2;PMS_P1;PMS_P2;Temp;Humidity;BMP_temperature;BMP_pressure;BME280_temperature;BME280_humidity;BME280_pressure;Samples;Min_cycle;Max_cycle;Signal;HPM_P1;HPM_P2
2021/08/15 00:01:00;;;;;;;7.07;5.65;;;13.10;70.40;;;;;;5008312;28;20131;-76
2021/08/15 00:03:26;;;;;;;8.30;5.72;;;13.10;70.10;;;;;;5011957;28;20507;-76
2021/08/15 00:05:52;;;;;;;8.85;4.72;;;13.00;69.70;;;;;;5011354;28;20105;-76
2021/08/15 00:08:19;;;;;;;6.70;4.40;;;13.00;69.60;;;;;;5009884;28;20539;-73
2021/08/15 00:10:45;;;;;;;7.28;4.05;;;13.00;69.80;;;;;;5010215;28;20492;-74
2021/08/15 00:13:12;;;;;;;6.78;4.03;;;12.90;70.00;;;;;;5010300;28;20491;-76
2021/08/15 00:15:38;;;;;;;9.73;3.75;;;12.90;70.00;;;;;;5010550;28;20165;-76
2021/08/15 00:18:05;;;;;;;5.40;3.08;;;12.90;69.80;;;;;;5009530;28;20071;-76
2021/08/15 00:20:31;;;;;;;8.43;3.38;;;12.80;69.50;;;;;;5013855;28;20526;-77
2021/08/15 00:22:58;;;;;;;10.00;3.72;;;12.80;69.60;;;;;;5012931;28;20037;-73
2021/08/15 00:25:25;;;;;;;5.85;2.90;;;12.80;69.30;;;;;;5011029;28;20026;-77
2021/08/15 00:27:52;;;;;;;6.68;1.92;;;12.80;69.10;;;;;;5015447;28;20093;-77
2021/08/15 00:30:18;;;;;;;3.38;2.10;;;12.80;68.70;;;;;;5012560;28;20010;-77
2021/08/15 00:32:47;;;;;;;5.25;2.83;;;12.80;69.00;;;;;;5010638;28;20025;-76
2021/08/15 00:35:14;;;;;;;4.05;2.33;;;12.70;69.10;;;;;;5011625;28;20025;-77
2021/08/15 00:37:41;;;;;;;3.95;2.53;;;12.70;68.60;;;;;;5014277;28;20093;-76
2021/08/15 00:40:07;;;;;;;3.15;2.30;;;12.70;67.90;;;;;;5013324;28;20072;-75
2021/08/15 00:42:34;;;;;;;3.67;1.95;;;12.70;67.80;;;;;;5012981;28;20513;-77
2021/08/15 00:45:01;;;;;;;2.83;2.35;;;12.70;68.50;;;;;;5012463;28;20018;-77
2021/08/15 00:47:33;;;;;;;2.88;1.65;;;12.60;68.60;;;;;;5013346;28;20030;-77
2021/08/15 00:50:00;;;;;;;5.22;2.47;;;12.60;68.60;;;;;;5011770;28;20383;-76
2021/08/15 00:52:27;;;;;;;2.58;1.70;;;12.60;68.40;;;;;;5013606;28;20010;-75
2021/08/15 00:54:59;;;;;;;4.75;2.13;;;12.60;68.40;;;;;;5013904;28;20054;-77
2021/08/15 00:57:29;;;;;;;2.63;1.88;;;12.60;67.90;;;;;;5010819;28;20058;-76
2021/08/15 01:00:07;;;;;;;2.60;1.50;;;12.50;67.80;;;;;;5013581;28;20029;-76
2021/08/15 01:02:42;;;;;;;4.10;1.95;;;12.50;67.70;;;;;;5012635;28;20092;-77
2021/08/15 01:05:09;;;;;;;2.97;1.77;;;12.50;67.70;;;;;;5010709;28;20468;-77
2021/08/15 01:07:37;;;;;;;2.35;1.58;;;12.50;67.00;;;;;;5014056;28;20022;-77
2021/08/15 01:10:04;;;;;;;2.42;1.40;;;12.60;66.80;;;;;;5011159;28;20018;-76
2021/08/15 01:12:31;;;;;;;3.63;1.27;;;12.60;66.80;;;;;;5013960;28;20080;-77
2021/08/15 01:14:58;;;;;;;2.15;1.05;;;12.60;66.40;;;;;;5012000;28;20352;-77
2021/08/15 01:17:29;;;;;;;2.88;1.00;;;12.60;66.30;;;;;;5010387;28;20032;-76
2021/08/15 01:19:57;;;;;;;3.35;1.27;;;12.70;66.30;;;;;;5011800;28;20072;-77
2021/08/15 01:22:25;;;;;;;2.75;1.27;;;12.70;65.80;;;;;;5010065;28;20033;-74
2021/08/15 01:25:05;;;;;;;1.52;0.98;;;12.70;65.60;;;;;;5011713;28;20026;-77
2021/08/15 01:27:43;;;;;;;2.38;1.40;;;12.80;65.60;;;;;;5010955;28;20013;-77
2021/08/15 01:30:12;;;;;;;0.82;0.80;;;12.80;65.30;;;;;;5003197;28;20018;-75
2021/08/15 01:32:39;;;;;;;2.50;1.33;;;12.80;65.10;;;;;;5010372;28;20068;-76
2021/08/15 01:35:06;;;;;;;1.33;1.10;;;12.80;65.80;;;;;;5012399;28;20037;-77
2021/08/15 01:37:33;;;;;;;4.05;1.20;;;12.80;66.10;;;;;;5009421;28;20053;-77
2021/08/15 01:40:02;;;;;;;3.17;1.40;;;12.80;66.40;;;;;;5012136;28;20045;-77
2021/08/15 01:42:30;;;;;;;2.00;1.60;;;12.80;66.50;;;;;;5011085;28;20370;-78
2021/08/15 01:45:00;;;;;;;1.80;1.55;;;12.70;66.20;;;;;;5011617;28;20027;-75
2021/08/15 01:47:28;;;;;;;3.08;1.35;;;12.70;66.00;;;;;;5011333;28;20497;-73
2021/08/15 01:49:55;;;;;;;2.72;1.63;;;12.70;66.50;;;;;;5011115;28;20022;-76
2021/08/15 01:52:22;;;;;;;1.75;1.38;;;12.70;66.60;;;;;;5010819;28;20026;-73
2021/08/15 01:54:49;;;;;;;4.93;1.58;;;12.70;66.60;;;;;;5011514;28;20427;-75
2021/08/15 01:57:15;;;;;;;2.45;1.05;;;12.70;66.30;;;;;;5011580;28;20032;-74
2021/08/15 01:59:42;;;;;;;5.45;2.22;;;12.60;66.10;;;;;;5010756;28;20025;-76
2021/08/15 02:02:09;;;;;;;2.90;1.20;;;12.60;66.50;;;;;;5009801;28;20026;-72
2021/08/15 02:04:35;;;;;;;2.78;1.80;;;12.60;66.50;;;;;;5012158;28;20018;-77
2021/08/15 02:07:03;;;;;;;1.70;1.13;;;12.60;66.20;;;;;;5009506;28;20661;-74
2021/08/15 02:09:29;;;;;;;2.60;1.38;;;12.60;66.20;;;;;;5010293;28;20076;-74
2021/08/15 02:11:56;;;;;;;2.83;1.35;;;12.60;66.20;;;;;;5010999;28;20037;-74
2021/08/15 02:14:22;;;;;;;4.38;1.75;;;12.60;66.40;;;;;;5002175;28;20030;-71
2021/08/15 02:16:49;;;;;;;4.15;1.30;;;12.60;66.50;;;;;;5008279;28;20020;-76
2021/08/15 02:19:15;;;;;;;2.38;1.75;;;12.60;66.80;;;;;;5011439;28;20022;-76
2021/08/15 02:21:41;;;;;;;3.50;2.05;;;12.60;67.00;;;;;;5012900;28;20044;-76
2021/08/15 02:24:09;;;;;;;4.53;2.10;;;12.60;67.30;;;;;;5009791;28;20022;-76
2021/08/15 02:26:35;;;;;;;4.00;2.55;;;12.70;67.60;;;;;;5011333;28;20033;-70
2021/08/15 02:29:02;;;;;;;4.10;2.35;;;12.70;67.60;;;;;;5010008;28;20018;-77
2021/08/15 02:31:28;;;;;;;3.63;2.22;;;12.80;67.50;;;;;;5013178;28;20381;-77
2021/08/15 02:33:55;;;;;;;4.47;2.67;;;12.80;67.30;;;;;;5011715;28;20024;-74
2021/08/15 02:36:21;;;;;;;6.50;3.00;;;12.80;67.40;;;;;;5011540;28;20021;-76
2021/08/15 02:38:48;;;;;;;5.07;2.38;;;12.80;67.30;;;;;;5012295;28;20346;-76
2021/08/15 02:41:14;;;;;;;6.22;2.92;;;12.80;67.40;;;;;;5012794;28;20017;-75
2021/08/15 02:43:41;;;;;;;7.75;2.88;;;12.80;68.10;;;;;;5011775;28;20124;-75
2021/08/15 02:46:07;;;;;;;3.63;2.92;;;12.80;68.60;;;;;;5009971;28;20350;-76
2021/08/15 02:48:34;;;;;;;29.98;19.70;;;12.80;69.20;;;;;;5012445;28;20026;-76
2021/08/15 02:51:01;;;;;;;43.63;28.27;;;12.80;69.40;;;;;;5011538;28;20026;-71
2021/08/15 02:53:27;;;;;;;13.82;9.05;;;12.80;69.70;;;;;;5013426;28;20553;-73
2021/08/15 02:55:54;;;;;;;5.75;3.67;;;12.80;70.00;;;;;;5011784;28;20025;-76
2021/08/15 02:58:20;;;;;;;8.52;4.00;;;12.90;69.90;;;;;;5010043;28;20072;-76
2021/08/15 03:00:46;;;;;;;6.40;3.88;;;12.80;69.80;;;;;;5010598;28;20021;-73
2021/08/15 03:03:13;;;;;;;9.63;4.50;;;12.80;69.80;;;;;;5009187;28;20034;-72
2021/08/15 03:05:39;;;;;;;5.80;4.20;;;12.70;69.70;;;;;;5014114;28;20168;-72
2021/08/15 03:08:06;;;;;;;12.10;6.43;;;12.60;70.00;;;;;;5011612;28;20016;-74
2021/08/15 03:10:33;;;;;;;7.43;4.28;;;12.60;70.30;;;;;;5010155;28;20373;-78
2021/08/15 03:12:59;;;;;;;9.30;4.53;;;12.60;70.60;;;;;;5011782;28;20049;-75
2021/08/15 03:15:26;;;;;;;10.75;4.55;;;12.50;70.70;;;;;;5008073;28;20025;-76
2021/08/15 03:17:52;;;;;;;7.68;3.90;;;12.50;71.20;;;;;;5011259;28;20025;-74
2021/08/15 03:20:19;;;;;;;10.73;4.93;;;12.40;71.70;;;;;;5010118;28;20029;-74
2021/08/15 03:22:45;;;;;;;10.25;5.20;;;12.40;72.20;;;;;;5010344;28;20030;-76
2021/08/15 03:25:12;;;;;;;10.63;4.97;;;12.40;72.50;;;;;;5008736;28;20022;-76
2021/08/15 03:27:38;;;;;;;14.65;5.78;;;12.40;72.90;;;;;;5014160;28;20057;-75
2021/08/15 03:30:05;;;;;;;15.02;7.13;;;12.30;73.20;;;;;;5008270;28;20025;-74
2021/08/15 03:32:32;;;;;;;13.73;6.75;;;12.30;73.80;;;;;;5009413;28;20019;-75
2021/08/15 03:34:58;;;;;;;12.02;6.30;;;12.30;74.00;;;;;;5012385;28;20021;-77
2021/08/15 03:37:25;;;;;;;10.32;5.97;;;12.30;73.80;;;;;;5009626;28;20507;-74
2021/08/15 03:39:53;;;;;;;12.30;6.03;;;12.20;73.70;;;;;;5011463;28;20018;-72
2021/08/15 03:42:19;;;;;;;15.10;6.97;;;12.20;74.10;;;;;;5007894;28;20042;-71
2021/08/15 03:44:46;;;;;;;11.80;5.47;;;12.20;74.80;;;;;;5010567;28;20010;-73
2021/08/15 03:47:12;;;;;;;13.32;4.85;;;12.10;74.70;;;;;;5009156;28;20485;-72
2021/08/15 03:49:39;;;;;;;14.07;5.90;;;12.10;74.70;;;;;;5011032;28;20022;-77
2021/08/15 03:52:06;;;;;;;9.98;5.22;;;12.10;74.70;;;;;;5006420;28;20025;-77
2021/08/15 03:54:32;;;;;;;20.40;5.68;;;12.10;74.80;;;;;;5014365;28;20037;-74
2021/08/15 03:56:58;;;;;;;12.35;7.28;;;12.10;75.30;;;;;;5015015;28;20022;-76
2021/08/15 03:59:25;;;;;;;16.88;5.97;;;12.10;75.60;;;;;;5013024;28;20473;-71
2021/08/15 04:01:51;;;;;;;13.48;5.50;;;12.10;75.70;;;;;;5015665;28;20026;-73
2021/08/15 04:04:18;;;;;;;11.38;4.93;;;12.20;75.60;;;;;;5012868;28;20014;-76
2021/08/15 04:06:45;;;;;;;8.68;4.35;;;12.10;74.70;;;;;;5014852;28;20026;-73
2021/08/15 04:09:12;;;;;;;7.10;4.00;;;12.10;74.20;;;;;;5013014;28;20021;-77
2021/08/15 04:11:39;;;;;;;10.32;4.63;;;12.10;74.10;;;;;;5013436;28;20065;-76
2021/08/15 04:14:05;;;;;;;11.07;4.78;;;12.10;73.60;;;;;;5015477;28;20018;-70
2021/08/15 04:16:32;;;;;;;9.38;4.50;;;12.10;73.20;;;;;;5012012;28;20385;-75
2021/08/15 04:18:58;;;;;;;5.30;4.25;;;12.00;73.40;;;;;;5014085;28;20013;-72
2021/08/15 04:21:25;;;;;;;8.40;4.50;;;12.00;73.30;;;;;;5010015;28;20018;-70
2021/08/15 04:23:52;;;;;;;9.43;4.07;;;11.90;73.30;;;;;;5012992;28;20120;-71
2021/08/15 04:26:18;;;;;;;8.73;4.38;;;11.90;73.30;;;;;;5012817;28;20499;-73
2021/08/15 04:28:45;;;;;;;4.57;2.90;;;11.80;73.30;;;;;;5013591;28;20022;-71
2021/08/15 04:31:12;;;;;;;6.22;3.25;;;11.80;72.80;;;;;;5013899;28;20025;-73
2021/08/15 04:33:38;;;;;;;5.75;3.90;;;11.80;73.30;;;;;;5014009;28;20037;-70
2021/08/15 04:36:05;;;;;;;9.60;4.63;;;11.70;73.40;;;;;;5013215;28;20026;-75
2021/08/15 04:38:31;;;;;;;11.65;5.88;;;11.70;73.60;;;;;;5012445;28;20153;-71
2021/08/15 04:40:58;;;;;;;8.80;4.82;;;11.70;74.00;;;;;;5012910;28;20025;-75
2021/08/15 04:43:24;;;;;;;10.15;5.18;;;11.70;74.50;;;;;;5012580;28;20117;-69
2021/08/15 04:45:51;;;;;;;5.75;3.95;;;11.70;73.70;;;;;;5013699;28;20017;-73
2021/08/15 04:48:17;;;;;;;4.45;3.85;;;11.60;73.40;;;;;;5015038;28;20029;-75
2021/08/15 04:50:45;;;;;;;5.68;4.03;;;11.60;73.60;;;;;;5012137;28;20116;-77
2021/08/15 04:53:12;;;;;;;11.55;5.03;;;11.50;73.80;;;;;;5014638;28;20754;-78
2021/08/15 04:55:39;;;;;;;7.82;4.85;;;11.50;73.70;;;;;;5012019;28;20025;-77
2021/08/15 04:58:05;;;;;;;5.30;3.60;;;11.50;73.90;;;;;;5012947;28;20029;-78
2021/08/15 05:00:33;;;;;;;5.28;3.30;;;11.50;73.90;;;;;;5012242;28;20024;-78
2021/08/15 05:02:59;;;;;;;7.72;3.28;;;11.50;74.00;;;;;;5010989;28;20044;-80
2021/08/15 05:05:26;;;;;;;4.93;3.08;;;11.50;73.70;;;;;;5008038;28;20045;-77
2021/08/15 05:07:52;;;;;;;5.18;3.53;;;11.50;73.60;;;;;;5012963;28;20023;-76
2021/08/15 05:10:19;;;;;;;4.15;3.10;;;11.50;73.70;;;;;;5014965;28;20021;-76
2021/08/15 05:12:46;;;;;;;5.10;2.92;;;11.40;73.70;;;;;;5010964;28;20500;-75
2021/08/15 05:15:12;;;;;;;7.05;3.28;;;11.40;73.60;;;;;;5013508;28;20097;-76
2021/08/15 05:17:39;;;;;;;4.38;3.17;;;11.40;73.60;;;;;;5012150;28;20021;-76
2021/08/15 05:20:06;;;;;;;6.55;4.25;;;11.40;74.00;;;;;;5013201;28;20465;-77
2021/08/15 05:22:33;;;;;;;5.18;3.92;;;11.40;74.00;;;;;;5013276;28;20030;-77
2021/08/15 05:24:59;;;;;;;5.95;3.28;;;11.30;74.00;;;;;;5009973;28;20844;-80
2021/08/15 05:27:26;;;;;;;2.60;2.33;;;11.30;74.00;;;;;;5009241;28;20076;-75
2021/08/15 05:29:52;;;;;;;5.50;3.15;;;11.30;73.90;;;;;;5012303;28;20547;-82
2021/08/15 05:32:19;;;;;;;16.10;9.75;;;11.30;73.90;;;;;;5001604;28;20065;-75
2021/08/15 05:34:45;;;;;;;20.58;13.80;;;11.30;74.10;;;;;;5010179;28;20076;-77
2021/08/15 05:37:12;;;;;;;4.35;3.90;;;11.30;74.20;;;;;;5009256;28;20421;-74
2021/08/15 05:39:38;;;;;;;7.28;5.53;;;11.20;74.00;;;;;;5012227;28;20125;-73
2021/08/15 05:42:05;;;;;;;6.93;5.15;;;11.20;74.10;;;;;;5011568;28;20416;-75
2021/08/15 05:44:31;;;;;;;5.35;4.65;;;11.20;73.90;;;;;;5011737;28;20473;-76
2021/08/15 05:46:58;;;;;;;9.07;5.13;;;11.20;74.10;;;;;;5011982;28;20017;-74
2021/08/15 05:49:24;;;;;;;7.05;3.80;;;11.10;74.20;;;;;;5012938;28;20021;-77
2021/08/15 05:51:50;;;;;;;7.18;4.35;;;11.20;74.30;;;;;;5012665;28;20480;-75
2021/08/15 05:54:17;;;;;;;4.97;4.00;;;11.10;74.20;;;;;;5015376;28;20481;-74
2021/08/15 05:56:43;;;;;;;5.38;3.13;;;11.10;74.40;;;;;;5014951;28;20832;-76
2021/08/15 05:59:10;;;;;;;2.72;2.33;;;11.10;74.60;;;;;;5012324;28;20014;-76
2021/08/15 06:01:37;;;;;;;4.45;2.47;;;11.10;74.30;;;;;;5012813;28;20010;-76
2021/08/15 06:04:04;;;;;;;3.97;2.17;;;11.10;74.30;;;;;;4987282;28;20036;-78
2021/08/15 06:06:30;;;;;;;7.22;5.15;;;11.10;74.40;;;;;;5012483;28;20112;-75
2021/08/15 06:08:57;;;;;;;16.90;12.68;;;11.10;74.40;;;;;;5003688;28;20033;-73
2021/08/15 06:11:23;;;;;;;8.52;6.25;;;11.10;75.00;;;;;;5010142;28;20069;-75
2021/08/15 06:13:51;;;;;;;3.03;1.63;;;11.20;74.40;;;;;;5011030;28;20058;-73
2021/08/15 06:16:18;;;;;;;1.55;1.33;;;11.20;74.10;;;;;;4985955;28;20021;-72
2021/08/15 06:18:45;;;;;;;6.30;3.17;;;11.20;75.00;;;;;;5013277;28;20025;-73
2021/08/15 06:21:11;;;;;;;4.00;2.30;;;11.20;74.40;;;;;;5010890;28;20018;-75
2021/08/15 06:23:38;;;;;;;4.70;3.00;;;11.30;74.90;;;;;;5008146;28;20077;-75
2021/08/15 06:26:05;;;;;;;7.47;2.22;;;11.30;74.90;;;;;;5012403;28;20025;-73
2021/08/15 06:28:32;;;;;;;4.45;2.13;;;11.40;75.50;;;;;;5010506;28;20033;-77
2021/08/15 06:30:59;;;;;;;4.45;2.20;;;11.40;74.80;;;;;;5010179;28;20030;-75
2021/08/15 06:33:26;;;;;;;7.80;2.72;;;11.40;75.20;;;;;;5009584;28;20239;-74
2021/08/15 06:36:32;;;;;;;7.05;2.42;;;11.40;75.40;;;;;;5008210;28;20109;-72
2021/08/15 06:39:39;;;;;;;4.28;2.47;;;11.50;75.30;;;;;;5004169;28;20022;-71
2021/08/15 06:42:45;;;;;;;4.05;2.10;;;11.50;75.30;;;;;;5009483;28;20464;-76
2021/08/15 06:45:51;;;;;;;4.15;2.88;;;11.60;75.70;;;;;;5005847;28;20485;-73
2021/08/15 06:48:17;;;;;;;5.60;3.15;;;11.60;75.80;;;;;;5007128;28;20022;-76
2021/08/15 06:50:44;;;;;;;5.95;3.45;;;11.70;75.90;;;;;;5010049;28;20061;-75
2021/08/15 06:53:11;;;;;;;5.22;3.05;;;11.70;76.10;;;;;;5006510;28;20112;-75
2021/08/15 06:55:37;;;;;;;4.50;3.30;;;11.80;76.30;;;;;;5006645;28;20002;-78
2021/08/15 06:58:03;;;;;;;3.60;2.97;;;11.80;76.50;;;;;;5008726;28;20025;-78
2021/08/15 07:00:30;;;;;;;7.72;3.58;;;11.90;76.80;;;;;;5007595;28;20053;-73
2021/08/15 07:02:56;;;;;;;8.05;4.22;;;11.90;76.90;;;;;;4997096;28;20037;-73
2021/08/15 07:05:23;;;;;;;5.68;2.90;;;12.00;77.20;;;;;;5006340;28;20096;-76
2021/08/15 07:07:49;;;;;;;3.65;2.75;;;12.10;77.30;;;;;;5008124;28;20053;-76
2021/08/15 07:10:16;;;;;;;4.88;2.92;;;12.10;77.40;;;;;;5008342;28;20026;-80
2021/08/15 07:12:43;;;;;;;4.47;2.67;;;12.10;77.60;;;;;;5006821;28;20069;-72
2021/08/15 07:15:10;;;;;;;7.07;3.63;;;12.20;78.00;;;;;;5009236;28;20020;-76
2021/08/15 07:17:37;;;;;;;4.43;2.83;;;12.40;78.10;;;;;;5006976;28;20033;-74
2021/08/15 07:20:06;;;;;;;11.90;4.22;;;12.40;78.00;;;;;;5007537;28;20030;-74
2021/08/15 07:22:32;;;;;;;7.63;3.58;;;12.50;77.80;;;;;;5005510;28;20033;-78
2021/08/15 07:24:59;;;;;;;6.60;4.05;;;12.60;77.30;;;;;;5007597;28;20022;-77
2021/08/15 07:27:25;;;;;;;7.43;5.47;;;12.70;76.60;;;;;;5005713;28;20021;-73
2021/08/15 07:29:52;;;;;;;6.85;5.35;;;12.80;75.90;;;;;;5006821;28;20025;-76
2021/08/15 07:32:19;;;;;;;10.35;7.05;;;12.90;74.50;;;;;;4989244;28;20117;-73
2021/08/15 07:34:45;;;;;;;378.52;280.30;;;13.00;74.50;;;;;;4987910;28;20072;-77
2021/08/15 07:37:12;;;;;;;46.75;34.63;;;13.00;74.80;;;;;;5006869;28;20378;-77
2021/08/15 07:39:39;;;;;;;23.60;11.90;;;13.10;73.70;;;;;;4987651;28;20527;-72
2021/08/15 07:42:05;;;;;;;15.55;9.63;;;13.20;72.80;;;;;;5006974;28;20460;-75
2021/08/15 07:44:32;;;;;;;18.15;10.50;;;13.20;72.70;;;;;;5004800;28;20018;-75
2021/08/15 07:46:59;;;;;;;42.47;11.38;;;13.20;72.60;;;;;;5006649;28;20065;-73
2021/08/15 07:49:25;;;;;;;29.42;11.10;;;13.30;72.80;;;;;;5006448;28;20128;-73
2021/08/15 07:51:52;;;;;;;68.85;16.42;;;13.40;72.60;;;;;;5006671;28;20041;-74
2021/08/15 07:54:18;;;;;;;60.35;14.23;;;13.40;72.60;;;;;;4988785;28;20137;-73
2021/08/15 07:56:45;;;;;;;45.88;12.75;;;13.40;72.60;;;;;;5005699;28;20016;-69
2021/08/15 07:59:11;;;;;;;39.95;12.48;;;13.50;73.00;;;;;;5000621;28;20018;-71
2021/08/15 08:01:38;;;;;;;21.42;10.00;;;13.50;72.90;;;;;;5008351;28;20049;-69
2021/08/15 08:04:04;;;;;;;17.77;9.27;;;13.50;72.70;;;;;;5008593;28;20018;-71
2021/08/15 08:06:31;;;;;;;70.82;53.35;;;13.60;72.60;;;;;;5005211;28;20053;-69
2021/08/15 08:09:37;;;;;;;78.55;53.00;;;13.70;72.60;;;;;;5007854;28;20076;-68
2021/08/15 08:12:45;;;;;;;54.53;42.08;;;13.70;72.70;;;;;;5007359;28;20052;-69
2021/08/15 08:15:12;;;;;;;54.33;34.53;;;13.80;73.00;;;;;;5005057;28;20061;-69
2021/08/15 08:17:38;;;;;;;40.50;31.77;;;13.80;73.20;;;;;;5008135;28;20022;-69
2021/08/15 08:20:05;;;;;;;36.88;25.10;;;13.90;73.20;;;;;;5006650;28;20036;-69
2021/08/15 08:22:32;;;;;;;38.60;24.90;;;13.90;73.00;;;;;;4980335;28;20038;-69
2021/08/15 08:24:58;;;;;;;30.70;20.80;;;14.00;72.90;;;;;;5005936;28;20791;-69
2021/08/15 08:27:25;;;;;;;24.45;17.58;;;14.00;72.80;;;;;;5006216;28;20029;-70
2021/08/15 08:29:52;;;;;;;25.90;15.30;;;14.10;73.00;;;;;;5008413;28;20456;-69
2021/08/15 08:32:18;;;;;;;18.23;13.98;;;14.20;73.10;;;;;;5009556;28;20029;-68
2021/08/15 08:34:44;;;;;;;23.25;14.93;;;14.20;73.00;;;;;;5008507;28;20050;-69
2021/08/15 08:37:11;;;;;;;15.00;11.65;;;14.30;72.80;;;;;;5008028;28;20030;-69
2021/08/15 08:39:38;;;;;;;22.52;11.98;;;14.30;72.50;;;;;;5011224;28;20080;-70
2021/08/15 08:42:08;;;;;;;17.13;9.65;;;14.40;72.30;;;;;;5013682;28;20408;-69
2021/08/15 08:44:36;;;;;;;15.32;9.65;;;14.50;72.20;;;;;;5013601;28;20531;-69
2021/08/15 08:47:10;;;;;;;12.80;9.18;;;14.50;71.70;;;;;;5013227;28;20112;-69
2021/08/15 08:49:41;;;;;;;14.85;8.73;;;14.60;71.20;;;;;;5009353;28;20049;-70
2021/08/15 08:52:09;;;;;;;13.85;7.80;;;14.70;70.90;;;;;;5011263;28;20061;-68
2021/08/15 08:54:36;;;;;;;10.55;6.43;;;14.80;70.90;;;;;;5016033;28;20492;-69
2021/08/15 08:57:03;;;;;;;9.55;6.28;;;14.80;70.50;;;;;;5012488;28;20091;-69
2021/08/15 08:59:29;;;;;;;9.00;7.13;;;14.90;69.90;;;;;;5014538;28;20025;-69
2021/08/15 09:01:56;;;;;;;8.27;5.40;;;15.00;69.60;;;;;;5010813;28;20026;-69
2021/08/15 09:04:23;;;;;;;9.27;5.57;;;15.00;69.30;;;;;;5014459;28;21051;-69
2021/08/15 09:06:50;;;;;;;8.13;5.30;;;15.10;68.90;;;;;;5011825;28;20025;-70
2021/08/15 09:09:19;;;;;;;7.53;4.85;;;15.10;68.30;;;;;;5012195;28;20504;-70
2021/08/15 09:11:48;;;;;;;5.38;4.05;;;15.20;67.20;;;;;;5010329;28;20099;-69
2021/08/15 09:14:18;;;;;;;8.25;3.40;;;15.30;66.90;;;;;;5013049;28;20492;-71
2021/08/15 09:17:06;;;;;;;4.82;3.00;;;15.40;66.40;;;;;;5012355;28;20022;-68
2021/08/15 09:19:37;;;;;;;3.88;3.03;;;15.50;65.90;;;;;;5009317;28;20030;-72
2021/08/15 09:22:20;;;;;;;4.97;3.20;;;15.50;65.30;;;;;;5014379;28;20033;-73
2021/08/15 09:25:00;;;;;;;3.83;3.08;;;15.60;65.40;;;;;;5011828;28;20029;-70
2021/08/15 09:27:43;;;;;;;5.22;3.30;;;15.70;65.20;;;;;;5014625;28;20021;-71
2021/08/15 09:30:15;;;;;;;6.80;5.07;;;15.80;65.00;;;;;;5013694;28;20382;-72
2021/08/15 09:33:17;;;;;;;7.63;3.30;;;15.90;65.20;;;;;;5010859;28;20022;-70
2021/08/15 09:35:44;;;;;;;5.32;3.60;;;16.00;64.70;;;;;;4982155;28;20440;-70
2021/08/15 09:38:19;;;;;;;4.60;3.50;;;16.10;64.70;;;;;;5003657;28;20498;-72
2021/08/15 09:40:46;;;;;;;5.68;3.60;;;16.10;63.60;;;;;;4989210;28;20025;-71
2021/08/15 09:43:24;;;;;;;5.07;3.65;;;16.20;62.20;;;;;;5012737;28;20060;-74
2021/08/15 09:45:53;;;;;;;7.38;3.03;;;16.30;62.00;;;;;;5010905;28;20030;-72
2021/08/15 09:48:25;;;;;;;5.70;2.88;;;16.40;62.10;;;;;;5012090;28;20045;-73
2021/08/15 09:51:13;;;;;;;5.55;2.95;;;16.40;62.10;;;;;;4986565;28;20630;-71
2021/08/15 09:53:49;;;;;;;8.80;3.33;;;16.60;62.10;;;;;;5011089;28;20013;-73
2021/08/15 09:56:29;;;;;;;4.32;2.78;;;16.60;62.10;;;;;;5009546;28;20025;-70
2021/08/15 09:59:19;;;;;;;7.82;3.40;;;16.70;60.60;;;;;;5009048;28;20033;-71
2021/08/15 10:01:55;;;;;;;9.65;6.35;;;16.80;60.30;;;;;;5010951;28;20018;-71
2021/08/15 10:04:23;;;;;;;15.43;9.85;;;16.90;59.80;;;;;;5011071;28;20010;-71
2021/08/15 10:06:55;;;;;;;9.80;6.07;;;17.10;59.40;;;;;;5009437;28;20511;-70
2021/08/15 10:09:26;;;;;;;6.15;4.18;;;17.20;59.30;;;;;;4992765;28;20026;-69
2021/08/15 10:11:54;;;;;;;7.35;3.95;;;17.30;59.40;;;;;;4988363;28;20062;-70
2021/08/15 10:14:20;;;;;;;9.15;3.97;;;17.30;59.20;;;;;;4992239;28;20107;-71
2021/08/15 10:17:01;;;;;;;6.80;3.28;;;17.40;59.20;;;;;;4987973;28;20028;-71
2021/08/15 10:19:36;;;;;;;5.80;3.38;;;17.40;58.90;;;;;;4988148;28;20026;-71
2021/08/15 10:22:04;;;;;;;6.25;3.70;;;17.50;58.80;;;;;;4990334;28;20034;-70
2021/08/15 10:24:52;;;;;;;4.43;2.92;;;17.60;58.00;;;;;;4988139;28;20034;-70
2021/08/15 10:27:43;;;;;;;5.85;3.25;;;17.70;58.30;;;;;;4991669;28;20528;-75
2021/08/15 10:30:18;;;;;;;8.38;4.28;;;17.80;57.80;;;;;;4989292;28;20105;-73
2021/08/15 10:32:56;;;;;;;;;;;17.80;57.40;;;;;;4989221;28;20069;-70
2021/08/15 10:35:24;;;;;;;38.08;26.85;;;17.90;56.80;;;;;;4990453;28;19960;-71
2021/08/15 10:37:55;;;;;;;21.60;15.80;;;18.00;56.90;;;;;;4987951;28;20018;-74
2021/08/15 10:40:40;;;;;;;83.65;66.70;;;18.10;56.60;;;;;;5001198;28;20034;-75
2021/08/15 10:43:11;;;;;;;382.02;328.20;;;18.20;56.10;;;;;;4986431;28;20598;-70
2021/08/15 10:45:39;;;;;;;117.05;89.43;;;18.20;55.80;;;;;;4986706;28;20358;-74
2021/08/15 10:48:05;;;;;;;87.68;68.90;;;18.40;55.50;;;;;;4988535;28;20413;-72
2021/08/15 10:50:43;;;;;;;131.25;112.88;;;18.40;54.90;;;;;;4988686;28;20022;-73
2021/08/15 10:56:02;;;;;;;115.75;102.65;;;18.60;54.10;;;;;;4986958;28;20622;-72
2021/08/15 10:58:38;;;;;;;144.85;129.57;;;18.70;53.70;;;;;;4990679;28;20033;-77
2021/08/15 11:01:09;;;;;;;82.40;73.53;;;18.80;52.60;;;;;;4989705;28;20387;-73
2021/08/15 11:03:37;;;;;;;132.88;110.38;;;18.90;52.30;;;;;;4988355;28;20030;-75
2021/08/15 11:06:05;;;;;;;74.88;62.88;;;18.90;52.30;;;;;;4989761;28;20037;-74
2021/08/15 11:08:34;;;;;;;64.55;56.33;;;19.00;51.70;;;;;;4988370;28;20069;-80
2021/08/15 11:11:25;;;;;;;50.00;41.97;;;19.10;50.90;;;;;;4983232;28;20401;-74
2021/08/15 11:14:29;;;;;;;36.95;32.10;;;19.20;51.00;;;;;;4981027;28;20030;-74
2021/08/15 11:17:09;;;;;;;39.20;33.80;;;19.20;50.80;;;;;;5009597;28;20018;-75
2021/08/15 11:19:36;;;;;;;164.50;120.93;;;19.40;50.00;;;;;;5009466;28;20080;-74
2021/08/15 11:22:15;;;;;;;90.50;66.32;;;19.50;49.20;;;;;;5008651;28;20038;-74
2021/08/15 11:24:45;;;;;;;61.28;53.35;;;19.50;48.90;;;;;;5006547;28;20026;-78
2021/08/15 11:27:28;;;;;;;71.72;54.58;;;19.60;48.90;;;;;;5008547;28;20030;-75
2021/08/15 11:29:55;;;;;;;58.90;41.90;;;19.70;48.30;;;;;;5006495;28;20033;-74
2021/08/15 11:32:24;;;;;;;44.97;35.42;;;19.70;47.80;;;;;;5008636;28;20631;-75
2021/08/15 11:35:02;;;;;;;100.30;76.13;;;19.80;46.90;;;;;;5008874;28;20026;-74
2021/08/15 11:37:49;;;;;;;95.72;72.30;;;19.90;45.20;;;;;;5008632;28;20022;-75
2021/08/15 11:41:00;;;;;;;133.55;109.85;;;19.90;45.40;;;;;;5009690;28;20072;-77
2021/08/15 11:44:06;;;;;;;155.50;124.28;;;20.00;44.50;;;;;;5006113;28;20037;-74
2021/08/15 11:46:32;;;;;;;142.68;120.75;;;20.10;44.10;;;;;;5005431;28;20021;-73
2021/08/15 11:48:59;;;;;;;167.13;135.98;;;20.20;43.90;;;;;;5007652;28;20045;-73
2021/08/15 11:51:25;;;;;;;299.85;243.30;;;20.20;43.30;;;;;;5007049;28;20028;-73
2021/08/15 11:53:52;;;;;;;297.38;235.07;;;20.20;43.20;;;;;;5007177;28;20096;-73
2021/08/15 11:56:20;;;;;;;372.58;308.63;;;20.30;43.10;;;;;;5009066;28;20022;-71
2021/08/15 11:58:51;;;;;;;405.80;339.13;;;20.30;42.30;;;;;;4992644;28;20460;-72
2021/08/15 12:01:22;;;;;;;349.10;285.35;;;20.40;42.10;;;;;;5008812;28;20017;-72
2021/08/15 12:04:03;;;;;;;355.92;285.85;;;20.40;42.10;;;;;;5010383;28;20438;-71
2021/08/15 12:06:38;;;;;;;445.80;360.13;;;20.40;40.90;;;;;;5010447;28;20547;-73
2021/08/15 12:09:27;;;;;;;199.35;151.00;;;20.50;41.40;;;;;;5012206;28;20053;-75
2021/08/15 12:11:56;;;;;;;215.75;162.32;;;20.50;41.60;;;;;;5010119;28;20532;-80
2021/08/15 12:14:22;;;;;;;160.90;113.10;;;20.60;41.80;;;;;;5013043;28;20030;-73
2021/08/15 12:17:00;;;;;;;247.02;176.85;;;20.60;41.40;;;;;;5010553;28;20193;-73
2021/08/15 12:19:32;;;;;;;219.00;155.73;;;20.60;40.50;;;;;;5014734;28;20116;-77
2021/08/15 12:22:01;;;;;;;527.22;393.13;;;20.70;41.10;;;;;;5015133;28;20053;-75
2021/08/15 12:24:31;;;;;;;498.40;396.77;;;20.70;40.30;;;;;;5013931;28;20018;-76
2021/08/15 12:27:08;;;;;;;315.77;241.45;;;20.80;40.50;;;;;;5012348;28;20014;-73
2021/08/15 12:29:36;;;;;;;371.00;303.38;;;20.80;40.80;;;;;;5008667;28;20101;-76
2021/08/15 12:32:13;;;;;;;227.00;172.60;;;20.80;40.00;;;;;;5013712;28;20112;-79
2021/08/15 12:34:56;;;;;;;125.50;93.53;;;20.80;40.30;;;;;;5018476;28;20017;-81
2021/08/15 12:37:36;;;;;;;83.10;63.35;;;20.90;40.30;;;;;;4995680;28;20037;-72
2021/08/15 12:40:07;;;;;;;57.97;42.38;;;20.90;40.10;;;;;;5012217;28;20030;-76
2021/08/15 12:42:35;;;;;;;42.33;26.73;;;20.90;40.20;;;;;;4995426;28;20030;-77
2021/08/15 12:45:11;;;;;;;30.85;21.45;;;21.00;40.20;;;;;;5013800;28;20349;-73
2021/08/15 12:47:40;;;;;;;23.95;16.23;;;21.00;40.20;;;;;;5008928;28;20022;-73
2021/08/15 12:50:19;;;;;;;19.15;11.98;;;21.00;39.90;;;;;;5013419;28;20321;-73
2021/08/15 12:52:46;;;;;;;13.57;9.55;;;21.00;39.90;;;;;;5009103;28;20026;-72
2021/08/15 12:55:13;;;;;;;14.90;9.18;;;21.10;39.90;;;;;;5009115;28;20033;-76